Time;durP1;ratioP1;P1;durP2;ratioP2;P2;SDS_P1;SDS_P2;PMS_P1;PMS_P2;Temp;Humidity;BMP_temperature;BMP_pressure;BME280_temperature;BME280_humidity;BME280_pressure;Samples;Min_cycle;Max_cycle;Signal;HPM_P1;HPM_P2
2022/12/13 00:01:16;;;;;;;28.55;10.60;;;;;;;;;;5048532;28;20054;-77
2022/12/13 00:03:44;;;;;;;26.75;10.35;;;;;;;;;;5049845;28;20062;-77
2022/12/13 00:06:11;;;;;;;22.10;9.80;;;;;;;;;;5050965;28;20057;-77
2022/12/13 00:08:40;;;;;;;22.50;10.05;;;;;;;;;;5047367;28;20050;-77
2022/12/13 00:11:10;;;;;;;26.30;10.18;;;;;;;;;;5046902;28;20082;-78
2022/12/13 00:13:38;;;;;;;20.35;9.45;;;;;;;;;;5049163;28;20053;-77
2022/12/13 00:16:06;;;;;;;23.10;10.57;;;;;;;;;;5050551;28;20144;-79
2022/12/13 00:18:34;;;;;;;26.02;10.15;;;;;;;;;;5055096;28;20053;-78
2022/12/13 00:21:05;;;;;;;20.60;9.35;;;;;;;;;;5047422;28;20045;-78
2022/12/13 00:23:34;;;;;;;21.67;9.82;;;;;;;;;;5052437;28;20128;-78
2022/12/13 00:26:05;;;;;;;27.55;10.73;;;;;;;;;;5050664;28;20049;-77
2022/12/13 00:28:32;;;;;;;26.38;10.52;;;;;;;;;;5057497;28;20103;-77
2022/12/13 00:31:00;;;;;;;24.80;10.18;;;;;;;;;;5052540;28;20156;-77
2022/12/13 00:33:48;;;;;;;23.15;9.73;;;;;;;;;;5044191;28;20519;-77
2022/12/13 00:36:16;;;;;;;19.67;9.55;;;;;;;;;;5047482;28;20053;-76
2022/12/13 00:38:43;;;;;;;24.52;9.65;;;;;;;;;;5040873;28;20103;-77
2022/12/13 00:41:15;;;;;;;24.08;10.10;;;;;;;;;;5053829;28;20059;-77
2022/12/13 00:43:42;;;;;;;27.52;10.07;;;;;;;;;;5043452;28;20077;-77
2022/12/13 00:46:16;;;;;;;21.92;10.00;;;;;;;;;;5046419;28;20050;-78
2022/12/13 00:48:48;;;;;;;31.17;9.70;;;;;;;;;;5047146;28;20088;-77
2022/12/13 00:51:16;;;;;;;22.23;9.63;;;;;;;;;;5050513;28;20056;-77
2022/12/13 00:53:44;;;;;;;20.70;8.38;;;;;;;;;;5051825;28;20084;-76
2022/12/13 00:56:13;;;;;;;18.92;10.50;;;;;;;;;;5048184;28;20046;-77
2022/12/13 00:58:40;;;;;;;23.73;9.82;;;;;;;;;;5030677;28;20073;-77
2022/12/13 01:01:12;;;;;;;18.83;9.45;;;;;;;;;;5049025;28;20061;-77
2022/12/13 01:03:40;;;;;;;20.63;10.18;;;;;;;;;;5052462;28;20049;-77
2022/12/13 01:06:09;;;;;;;20.38;9.63;;;;;;;;;;5050821;28;20053;-77
2022/12/13 01:08:42;;;;;;;17.05;9.63;;;;;;;;;;5049526;28;20060;-77
2022/12/13 01:11:10;;;;;;;29.63;10.98;;;;;;;;;;5054047;28;20466;-77
2022/12/13 01:13:38;;;;;;;23.13;9.32;;;;;;;;;;5045184;28;20055;-77
2022/12/13 01:16:07;;;;;;;26.88;10.23;;;;;;;;;;5047776;28;20045;-77
2022/12/13 01:18:35;;;;;;;19.15;9.35;;;;;;;;;;5047269;28;20108;-77
2022/12/13 01:21:04;;;;;;;20.90;9.35;;;;;;;;;;5044126;28;20068;-77
2022/12/13 01:23:31;;;;;;;20.35;9.70;;;;;;;;;;5047997;28;20152;-76
2022/12/13 01:26:02;;;;;;;20.20;10.70;;;;;;;;;;5045470;28;20061;-77
2022/12/13 01:28:30;;;;;;;25.45;10.43;;;;;;;;;;5049804;28;20825;-77
2022/12/13 01:30:59;;;;;;;23.48;9.07;;;;;;;;;;5047091;28;20053;-77
2022/12/13 01:33:26;;;;;;;29.63;9.45;;;;;;;;;;5048939;28;20052;-77
2022/12/13 01:35:54;;;;;;;22.17;10.60;;;;;;;;;;5051676;28;20057;-77
2022/12/13 01:38:21;;;;;;;26.13;11.27;;;;;;;;;;5049132;28;20103;-77
2022/12/13 01:40:56;;;;;;;28.42;11.70;;;;;;;;;;5053237;28;20136;-76
2022/12/13 01:43:29;;;;;;;28.85;12.10;;;;;;;;;;5047826;28;20056;-77
2022/12/13 01:45:56;;;;;;;22.48;9.73;;;;;;;;;;5048051;28;20056;-77
2022/12/13 01:48:26;;;;;;;23.55;10.82;;;;;;;;;;5054108;28;20104;-76
2022/12/13 01:50:56;;;;;;;21.48;10.50;;;;;;;;;;5051822;28;20140;-76
2022/12/13 01:53:26;;;;;;;22.23;10.27;;;;;;;;;;5047085;28;20054;-77
2022/12/13 01:55:55;;;;;;;25.40;10.20;;;;;;;;;;5049440;28;20057;-77
2022/12/13 01:58:22;;;;;;;29.13;9.88;;;;;;;;;;5049136;28;20077;-77
2022/12/13 02:00:50;;;;;;;20.77;9.30;;;;;;;;;;5048530;28;20049;-76
2022/12/13 02:03:19;;;;;;;21.33;9.35;;;;;;;;;;5053837;28;20057;-76
2022/12/13 02:05:59;;;;;;;22.77;9.43;;;;;;;;;;5048726;28;20115;-76
2022/12/13 02:08:28;;;;;;;23.10;9.13;;;;;;;;;;5055686;28;20060;-76
2022/12/13 02:10:57;;;;;;;22.65;9.10;;;;;;;;;;5048124;28;20455;-76
2022/12/13 02:13:24;;;;;;;23.75;9.93;;;;;;;;;;5056301;28;20049;-76
2022/12/13 02:16:04;;;;;;;22.27;8.85;;;;;;;;;;5049130;28;20567;-76
2022/12/13 02:18:50;;;;;;;18.00;8.68;;;;;;;;;;5029262;28;20127;-77
2022/12/13 02:21:26;;;;;;;21.58;9.00;;;;;;;;;;5054111;28;20049;-76
2022/12/13 02:24:15;;;;;;;20.83;9.60;;;;;;;;;;5046645;28;20091;-76
2022/12/13 02:26:45;;;;;;;18.85;9.23;;;;;;;;;;5047545;28;20058;-76
2022/12/13 02:29:36;;;;;;;22.65;8.77;;;;;;;;;;5046560;28;20107;-76
2022/12/13 02:32:09;;;;;;;19.30;8.18;;;;;;;;;;4974348;28;20058;-76
2022/12/13 02:34:39;;;;;;;19.52;8.50;;;;;;;;;;4973789;28;20051;-76
2022/12/13 02:37:26;;;;;;;23.30;10.75;;;;;;;;;;4975043;28;20063;-76
2022/12/13 02:39:59;;;;;;;20.50;8.77;;;;;;;;;;4968681;28;20047;-76
2022/12/13 02:42:31;;;;;;;24.55;8.93;;;;;;;;;;4974913;28;20059;-76
2022/12/13 02:45:02;;;;;;;25.55;9.23;;;;;;;;;;4974165;28;20955;-76
2022/12/13 02:47:30;;;;;;;28.45;10.02;;;;;;;;;;4971194;28;20059;-76
2022/12/13 02:49:59;;;;;;;15.80;7.97;;;;;;;;;;4979696;28;20090;-76
2022/12/13 02:52:27;;;;;;;18.77;9.27;;;;;;;;;;4972443;28;20146;-76
2022/12/13 02:54:55;;;;;;;18.27;8.57;;;;;;;;;;4968754;28;20131;-76
2022/12/13 02:57:34;;;;;;;20.40;9.32;;;;;;;;;;4973825;28;20110;-76
2022/12/13 03:00:07;;;;;;;32.92;9.13;;;;;;;;;;4973808;28;21124;-76
2022/12/13 03:02:42;;;;;;;21.83;8.50;;;;;;;;;;4975796;28;21170;-76
2022/12/13 03:08:08;;;;;;;23.17;9.23;;;;;;;;;;4969418;28;20051;-76
2022/12/13 03:10:42;;;;;;;22.33;9.77;;;;;;;;;;5044593;28;20057;-76
2022/12/13 03:15:59;;;;;;;16.60;8.57;;;;;;;;;;5052379;28;20049;-76
2022/12/13 03:18:27;;;;;;;21.65;8.98;;;;;;;;;;5053504;28;20131;-75
2022/12/13 03:21:03;;;;;;;20.85;8.38;;;;;;;;;;5050625;28;20112;-76
2022/12/13 03:23:30;;;;;;;17.77;8.30;;;;;;;;;;5046473;28;20061;-76
2022/12/13 03:26:11;;;;;;;21.15;8.82;;;;;;;;;;5055909;28;20507;-76
2022/12/13 03:28:40;;;;;;;17.67;8.13;;;;;;;;;;5046835;28;20063;-76
2022/12/13 03:31:07;;;;;;;16.75;7.82;;;;;;;;;;5024282;28;20073;-76
2022/12/13 03:33:34;;;;;;;17.98;8.93;;;;;;;;;;5044512;28;20053;-76
2022/12/13 03:36:02;;;;;;;18.98;8.13;;;;;;;;;;5044032;28;20152;-76
2022/12/13 03:38:29;;;;;;;20.65;8.45;;;;;;;;;;5031705;28;20057;-77
2022/12/13 03:41:00;;;;;;;19.45;8.90;;;;;;;;;;5047809;28;20050;-76
2022/12/13 03:43:28;;;;;;;22.23;9.38;;;;;;;;;;5052186;28;20054;-76
2022/12/13 03:45:55;;;;;;;23.80;10.00;;;;;;;;;;5044139;28;20058;-76
2022/12/13 03:48:23;;;;;;;24.58;10.77;;;;;;;;;;5052548;28;20145;-76
2022/12/13 03:50:51;;;;;;;22.95;10.27;;;;;;;;;;5046084;28;20088;-75
2022/12/13 03:53:19;;;;;;;23.10;9.43;;;;;;;;;;5051907;28;20057;-76
2022/12/13 03:55:59;;;;;;;16.63;8.88;;;;;;;;;;5040038;28;20053;-76
2022/12/13 03:58:27;;;;;;;25.60;9.30;;;;;;;;;;5053861;28;20441;-76
2022/12/13 04:01:07;;;;;;;23.55;9.52;;;;;;;;;;5042718;28;20073;-76
2022/12/13 04:03:34;;;;;;;21.17;9.55;;;;;;;;;;5056429;28;20499;-76
2022/12/13 04:06:02;;;;;;;21.15;9.48;;;;;;;;;;5055372;28;20568;-76
2022/12/13 04:08:30;;;;;;;26.88;12.18;;;;;;;;;;5063878;28;20494;-76
2022/12/13 04:10:57;;;;;;;25.63;11.18;;;;;;;;;;5057274;28;20057;-76
2022/12/13 04:13:33;;;;;;;27.25;12.55;;;;;;;;;;5049585;28;21024;-76
2022/12/13 04:16:01;;;;;;;24.02;11.57;;;;;;;;;;5049713;28;20088;-76
2022/12/13 04:18:29;;;;;;;25.48;11.63;;;;;;;;;;5051151;28;20085;-76
2022/12/13 04:21:00;;;;;;;19.98;10.05;;;;;;;;;;5053181;28;20045;-76
2022/12/13 04:23:27;;;;;;;28.27;10.88;;;;;;;;;;5045216;28;20924;-77
2022/12/13 04:25:54;;;;;;;25.13;9.85;;;;;;;;;;5061642;28;20060;-76
2022/12/13 04:28:21;;;;;;;28.27;10.90;;;;;;;;;;5053627;28;20045;-76
2022/12/13 04:30:51;;;;;;;28.23;10.98;;;;;;;;;;5048478;28;20108;-76
2022/12/13 04:33:23;;;;;;;23.17;9.43;;;;;;;;;;5054378;28;20054;-76
2022/12/13 04:35:53;;;;;;;23.08;9.80;;;;;;;;;;5043019;28;20054;-76
2022/12/13 04:38:21;;;;;;;20.30;9.45;;;;;;;;;;5055237;28;20152;-76
2022/12/13 04:40:50;;;;;;;23.25;9.40;;;;;;;;;;5054302;28;20050;-77
2022/12/13 04:43:18;;;;;;;23.25;9.52;;;;;;;;;;5052722;28;20052;-76
2022/12/13 04:45:45;;;;;;;23.95;10.02;;;;;;;;;;5053476;28;20108;-76
2022/12/13 04:48:12;;;;;;;24.38;9.32;;;;;;;;;;5049674;28;20054;-76
2022/12/13 04:50:58;;;;;;;20.35;8.52;;;;;;;;;;5047092;28;20101;-76
2022/12/13 04:53:28;;;;;;;21.95;9.35;;;;;;;;;;5050014;28;20050;-76
2022/12/13 04:55:55;;;;;;;22.65;9.88;;;;;;;;;;5052093;28;20053;-76
2022/12/13 04:58:22;;;;;;;26.52;9.98;;;;;;;;;;5048405;28;20049;-76
2022/12/13 05:00:52;;;;;;;23.40;10.57;;;;;;;;;;5050386;28;20050;-76
2022/12/13 05:03:19;;;;;;;29.50;11.30;;;;;;;;;;5045631;28;20135;-76
2022/12/13 05:05:47;;;;;;;20.10;9.25;;;;;;;;;;5054035;28;20052;-76
2022/12/13 05:08:17;;;;;;;23.83;9.70;;;;;;;;;;5054453;28;20058;-76
2022/12/13 05:10:48;;;;;;;17.67;8.57;;;;;;;;;;5049117;28;20153;-76
2022/12/13 05:13:15;;;;;;;26.27;10.48;;;;;;;;;;5049695;28;20049;-76
2022/12/13 05:15:46;;;;;;;29.48;10.35;;;;;;;;;;5024730;28;20053;-76
2022/12/13 05:18:21;;;;;;;24.77;9.73;;;;;;;;;;5047302;28;20135;-76
2022/12/13 05:20:53;;;;;;;22.20;8.30;;;;;;;;;;5048132;28;20172;-76
2022/12/13 05:23:24;;;;;;;21.60;9.32;;;;;;;;;;5054359;28;20098;-76
2022/12/13 05:25:51;;;;;;;25.65;10.15;;;;;;;;;;5049559;28;20055;-76
2022/12/13 05:28:19;;;;;;;23.05;10.32;;;;;;;;;;5035415;28;20051;-77
2022/12/13 05:30:55;;;;;;;26.02;10.25;;;;;;;;;;5044418;28;20546;-76
2022/12/13 05:33:24;;;;;;;16.95;9.50;;;;;;;;;;5047445;28;20129;-76
2022/12/13 05:35:52;;;;;;;21.98;10.02;;;;;;;;;;5047957;28;20060;-76
2022/12/13 05:38:29;;;;;;;20.25;9.07;;;;;;;;;;5058958;28;20061;-76
2022/12/13 05:41:17;;;;;;;32.95;9.35;;;;;;;;;;5051982;28;20060;-76
2022/12/13 05:43:56;;;;;;;23.00;9.38;;;;;;;;;;5048329;28;20050;-76
2022/12/13 05:46:24;;;;;;;23.75;9.13;;;;;;;;;;5050906;28;20076;-76
2022/12/13 05:48:52;;;;;;;19.38;9.68;;;;;;;;;;5043741;28;20080;-76
2022/12/13 05:51:19;;;;;;;30.75;9.27;;;;;;;;;;5044503;28;20060;-76
2022/12/13 05:53:46;;;;;;;17.33;8.48;;;;;;;;;;5054192;28;20076;-76
2022/12/13 05:56:19;;;;;;;23.40;9.77;;;;;;;;;;5047739;28;20053;-76
2022/12/13 05:58:49;;;;;;;21.08;9.02;;;;;;;;;;5046604;28;20053;-76
2022/12/13 06:01:20;;;;;;;23.67;9.57;;;;;;;;;;5047148;28;20053;-76
2022/12/13 06:03:47;;;;;;;19.98;8.38;;;;;;;;;;5048534;28;20053;-76
2022/12/13 06:06:17;;;;;;;15.98;8.57;;;;;;;;;;5049114;28;20074;-76
2022/12/13 06:08:44;;;;;;;20.30;10.25;;;;;;;;;;5052471;28;20138;-76
2022/12/13 06:11:12;;;;;;;22.48;9.30;;;;;;;;;;5045475;28;20060;-76
2022/12/13 06:13:58;;;;;;;19.52;8.88;;;;;;;;;;5045011;28;20107;-76
2022/12/13 06:16:27;;;;;;;21.83;10.68;;;;;;;;;;5024647;28;20052;-76
2022/12/13 06:18:55;;;;;;;19.58;9.07;;;;;;;;;;5052711;28;20060;-76
2022/12/13 06:21:31;;;;;;;19.30;9.63;;;;;;;;;;5050765;28;20054;-76
2022/12/13 06:24:09;;;;;;;23.60;9.82;;;;;;;;;;5054064;28;20064;-76
2022/12/13 06:26:37;;;;;;;19.92;8.82;;;;;;;;;;5046557;28;20052;-76
2022/12/13 06:29:04;;;;;;;18.67;8.75;;;;;;;;;;5051285;28;20099;-76
2022/12/13 06:31:32;;;;;;;26.20;9.95;;;;;;;;;;5046617;28;20064;-76
2022/12/13 06:34:02;;;;;;;20.13;9.05;;;;;;;;;;5049863;28;20096;-76
2022/12/13 06:36:41;;;;;;;21.65;9.20;;;;;;;;;;5050070;28;20053;-76
2022/12/13 06:39:08;;;;;;;24.48;10.10;;;;;;;;;;5052529;28;20523;-76
2022/12/13 06:41:35;;;;;;;20.88;10.18;;;;;;;;;;5050765;28;20061;-76
2022/12/13 06:44:03;;;;;;;20.80;9.55;;;;;;;;;;5054377;28;20049;-76
2022/12/13 06:46:30;;;;;;;21.02;10.70;;;;;;;;;;5049971;28;20049;-76
2022/12/13 06:48:58;;;;;;;26.77;9.55;;;;;;;;;;5051659;28;20575;-76
2022/12/13 06:51:25;;;;;;;19.85;10.10;;;;;;;;;;5054445;28;20806;-77
2022/12/13 06:54:00;;;;;;;25.58;10.57;;;;;;;;;;5044839;28;20160;-76
2022/12/13 06:56:28;;;;;;;23.15;9.90;;;;;;;;;;5045419;28;20064;-76
2022/12/13 06:58:56;;;;;;;23.20;9.45;;;;;;;;;;5041365;28;20066;-76
2022/12/13 07:01:28;;;;;;;21.38;9.57;;;;;;;;;;5042048;28;20061;-76
2022/12/13 07:04:04;;;;;;;21.73;10.43;;;;;;;;;;5045918;28;20053;-76
2022/12/13 07:06:54;;;;;;;22.10;9.13;;;;;;;;;;5047873;28;20539;-76
2022/12/13 07:09:29;;;;;;;28.83;8.77;;;;;;;;;;5045098;28;20057;-76
2022/12/13 07:11:57;;;;;;;18.83;8.98;;;;;;;;;;5053751;28;20049;-76
2022/12/13 07:14:24;;;;;;;29.85;9.82;;;;;;;;;;5045131;28;20132;-79
2022/12/13 07:17:07;;;;;;;19.60;10.50;;;;;;;;;;5045970;28;20096;-76
2022/12/13 07:19:35;;;;;;;26.77;11.45;;;;;;;;;;5028981;28;20343;-76
2022/12/13 07:22:06;;;;;;;22.65;11.35;;;;;;;;;;5044884;28;20053;-76
2022/12/13 07:24:34;;;;;;;21.08;10.15;;;;;;;;;;5047964;28;20063;-76
2022/12/13 07:27:02;;;;;;;23.33;11.25;;;;;;;;;;5047626;28;20104;-76
2022/12/13 07:29:29;;;;;;;19.00;9.63;;;;;;;;;;5047477;28;20056;-76
2022/12/13 07:31:58;;;;;;;24.77;11.40;;;;;;;;;;5049102;28;20594;-76
2022/12/13 07:34:28;;;;;;;32.03;9.95;;;;;;;;;;5043541;28;20057;-76
2022/12/13 07:36:57;;;;;;;26.70;10.05;;;;;;;;;;5048315;28;20154;-76
2022/12/13 07:39:25;;;;;;;28.38;11.18;;;;;;;;;;5045485;28;20064;-76
2022/12/13 07:41:59;;;;;;;23.17;11.07;;;;;;;;;;5041655;28;20060;-76
2022/12/13 07:44:27;;;;;;;21.42;9.93;;;;;;;;;;5044421;28;20049;-76
2022/12/13 07:46:54;;;;;;;27.25;10.27;;;;;;;;;;5045003;28;20080;-76
2022/12/13 07:49:22;;;;;;;23.52;11.52;;;;;;;;;;5052852;28;20057;-76
2022/12/13 07:51:49;;;;;;;26.92;11.43;;;;;;;;;;5041560;28;20140;-76
2022/12/13 07:54:17;;;;;;;25.05;9.65;;;;;;;;;;5043305;28;20077;-76
2022/12/13 07:56:45;;;;;;;22.85;9.32;;;;;;;;;;5023255;28;20076;-76
2022/12/13 07:59:12;;;;;;;25.27;10.88;;;;;;;;;;5051942;28;20049;-76
2022/12/13 08:01:40;;;;;;;24.23;10.48;;;;;;;;;;5044415;28;20125;-76
2022/12/13 08:04:08;;;;;;;22.17;10.25;;;;;;;;;;5047140;28;20119;-76
2022/12/13 08:06:37;;;;;;;21.55;9.88;;;;;;;;;;5025111;28;20639;-76
2022/12/13 08:09:16;;;;;;;20.30;9.85;;;;;;;;;;5048963;28;20895;-78
2022/12/13 08:11:47;;;;;;;29.80;10.70;;;;;;;;;;5051086;28;20084;-77
2022/12/13 08:14:14;;;;;;;28.05;11.25;;;;;;;;;;5048461;28;20061;-78
2022/12/13 08:16:47;;;;;;;24.83;10.30;;;;;;;;;;5044628;28;20076;-76
2022/12/13 08:19:15;;;;;;;22.02;10.80;;;;;;;;;;5044180;28;20061;-76
2022/12/13 08:21:43;;;;;;;38.40;11.77;;;;;;;;;;5047153;28;20786;-76
2022/12/13 08:24:23;;;;;;;22.60;10.18;;;;;;;;;;5043775;28;20112;-77
2022/12/13 08:26:54;;;;;;;23.27;9.93;;;;;;;;;;5041453;28;20832;-77
2022/12/13 08:29:23;;;;;;;30.57;11.03;;;;;;;;;;5045853;28;20049;-77
2022/12/13 08:32:11;;;;;;;29.92;10.40;;;;;;;;;;5046070;28;20770;-77
2022/12/13 08:34:40;;;;;;;26.63;10.50;;;;;;;;;;5043373;28;20092;-76
2022/12/13 08:37:10;;;;;;;29.60;11.57;;;;;;;;;;5045516;28;20080;-76
2022/12/13 08:39:38;;;;;;;26.92;12.43;;;;;;;;;;5050831;28;20055;-79
2022/12/13 08:42:13;;;;;;;46.72;14.38;;;;;;;;;;5044362;28;20053;-76
2022/12/13 08:44:46;;;;;;;45.42;16.50;;;;;;;;;;5045975;28;20068;-76
2022/12/13 08:47:15;;;;;;;62.80;20.27;;;;;;;;;;5044552;28;20108;-77
2022/12/13 08:49:51;;;;;;;72.35;24.70;;;;;;;;;;5044530;28;20050;-76
2022/12/13 08:52:21;;;;;;;48.47;18.45;;;;;;;;;;5028783;28;20049;-77
2022/12/13 08:54:54;;;;;;;48.83;18.67;;;;;;;;;;5045305;28;20658;-77
2022/12/13 08:57:26;;;;;;;60.80;19.52;;;;;;;;;;5040634;28;20045;-76
2022/12/13 08:59:56;;;;;;;46.80;18.42;;;;;;;;;;5043672;28;20057;-77
2022/12/13 09:02:24;;;;;;;45.65;18.02;;;;;;;;;;5044562;28;20046;-77
2022/12/13 09:04:52;;;;;;;42.47;15.82;;;;;;;;;;5046683;28;20143;-77
2022/12/13 09:07:19;;;;;;;31.13;13.70;;;;;;;;;;5041207;28;20500;-77
2022/12/13 09:09:47;;;;;;;22.25;12.43;;;;;;;;;;5048462;28;20111;-77
2022/12/13 09:12:21;;;;;;;35.65;15.50;;;;;;;;;;5046155;28;20119;-76
2022/12/13 09:14:57;;;;;;;27.02;13.30;;;;;;;;;;5046270;28;20054;-76
2022/12/13 09:17:30;;;;;;;36.67;15.57;;;;;;;;;;5043328;28;20062;-76
2022/12/13 09:20:03;;;;;;;34.80;15.63;;;;;;;;;;5053331;28;20487;-76
2022/12/13 09:22:53;;;;;;;34.35;14.93;;;;;;;;;;5045213;28;20054;-76
2022/12/13 09:25:29;;;;;;;38.65;16.23;;;;;;;;;;5048378;28;20068;-76
2022/12/13 09:28:07;;;;;;;39.13;17.50;;;;;;;;;;5029039;28;20049;-76
2022/12/13 09:30:38;;;;;;;41.92;16.58;;;;;;;;;;5042764;28;20057;-76
2022/12/13 09:33:09;;;;;;;52.22;17.52;;;;;;;;;;5046620;28;21857;-76
2022/12/13 09:35:55;;;;;;;55.17;20.50;;;;;;;;;;5042308;28;20045;-76
2022/12/13 09:38:22;;;;;;;57.47;19.13;;;;;;;;;;5044679;28;20073;-77
2022/12/13 09:40:53;;;;;;;55.88;19.88;;;;;;;;;;5032516;28;20049;-77
2022/12/13 09:43:35;;;;;;;52.20;20.45;;;;;;;;;;5047906;28;20045;-77
2022/12/13 09:46:21;;;;;;;43.42;18.45;;;;;;;;;;5037258;28;20553;-77
2022/12/13 09:48:52;;;;;;;46.08;19.63;;;;;;;;;;5047370;28;20052;-76
2022/12/13 09:51:29;;;;;;;40.90;19.00;;;;;;;;;;5046085;28;20052;-78
2022/12/13 09:54:22;;;;;;;40.13;18.52;;;;;;;;;;5048256;28;20057;-77
2022/12/13 09:56:53;;;;;;;46.83;18.02;;;;;;;;;;5044329;28;20119;-77
2022/12/13 09:59:28;;;;;;;39.17;18.20;;;;;;;;;;5050809;28;20057;-77
2022/12/13 10:02:12;;;;;;;37.45;17.77;;;;;;;;;;5047231;28;20088;-76
2022/12/13 10:04:39;;;;;;;41.78;16.00;;;;;;;;;;5049974;28;20049;-77
2022/12/13 10:07:13;;;;;;;35.88;16.80;;;;;;;;;;5045330;28;20049;-77
2022/12/13 10:09:41;;;;;;;38.30;16.60;;;;;;;;;;5046055;28;20131;-77
2022/12/13 10:12:11;;;;;;;39.55;16.92;;;;;;;;;;5047707;28;20057;-77
2022/12/13 10:14:54;;;;;;;40.83;16.27;;;;;;;;;;5051956;28;20496;-77
2022/12/13 10:17:24;;;;;;;31.38;15.57;;;;;;;;;;5045046;28;20053;-77
2022/12/13 10:19:57;;;;;;;35.17;16.00;;;;;;;;;;5047132;28;20104;-77
2022/12/13 10:22:24;;;;;;;31.75;14.80;;;;;;;;;;5029418;28;20080;-77
2022/12/13 10:24:56;;;;;;;31.27;15.43;;;;;;;;;;5044522;28;20123;-77
2022/12/13 10:27:33;;;;;;;37.03;16.42;;;;;;;;;;5046254;28;20101;-77
2022/12/13 10:30:04;;;;;;;34.08;16.00;;;;;;;;;;5050503;28;20112;-77
2022/12/13 10:32:33;;;;;;;30.80;14.82;;;;;;;;;;5041369;28;20101;-76
2022/12/13 10:35:26;;;;;;;37.00;16.00;;;;;;;;;;5056281;28;20053;-77
2022/12/13 10:37:56;;;;;;;41.10;15.93;;;;;;;;;;5051657;28;20045;-77
2022/12/13 10:40:39;;;;;;;32.58;15.70;;;;;;;;;;5037942;28;20049;-77
2022/12/13 10:43:16;;;;;;;42.15;15.48;;;;;;;;;;5049419;28;20083;-77
2022/12/13 10:45:57;;;;;;;35.78;15.35;;;;;;;;;;5046027;28;20522;-77
2022/12/13 10:48:38;;;;;;;33.63;15.13;;;;;;;;;;5025782;28;20058;-76
2022/12/13 10:51:08;;;;;;;35.45;16.08;;;;;;;;;;5053357;28;20049;-77
2022/12/13 10:53:55;;;;;;;33.75;16.90;;;;;;;;;;5045314;28;20049;-77
2022/12/13 10:56:42;;;;;;;31.67;15.35;;;;;;;;;;5047498;28;20061;-77
2022/12/13 10:59:19;;;;;;;31.70;15.70;;;;;;;;;;5058269;28;20107;-77
2022/12/13 11:01:47;;;;;;;36.50;16.27;;;;;;;;;;5049571;28;20051;-76
2022/12/13 11:04:28;;;;;;;35.38;17.10;;;;;;;;;;5042896;28;20049;-77
2022/12/13 11:06:57;;;;;;;33.53;16.38;;;;;;;;;;5045258;28;20052;-77
2022/12/13 11:09:26;;;;;;;38.13;16.27;;;;;;;;;;5048505;28;20079;-77
2022/12/13 11:11:55;;;;;;;35.85;15.98;;;;;;;;;;5049957;28;20061;-77
2022/12/13 11:14:30;;;;;;;30.52;15.30;;;;;;;;;;5047537;28;20057;-77
2022/12/13 11:17:05;;;;;;;38.00;15.35;;;;;;;;;;5050206;28;20046;-78
2022/12/13 11:19:32;;;;;;;34.40;15.68;;;;;;;;;;5039134;28;20050;-78
2022/12/13 11:22:03;;;;;;;36.28;16.00;;;;;;;;;;5047292;28;20049;-78
2022/12/13 11:24:32;;;;;;;28.25;15.23;;;;;;;;;;5052266;28;20053;-78
2022/12/13 11:27:08;;;;;;;30.38;15.45;;;;;;;;;;5041776;28;20052;-78
2022/12/13 11:29:45;;;;;;;31.88;15.20;;;;;;;;;;5049918;28;20058;-78
2022/12/13 11:32:27;;;;;;;35.55;16.10;;;;;;;;;;5050840;28;20051;-77
2022/12/13 11:35:15;;;;;;;40.47;15.98;;;;;;;;;;5053587;28;20144;-77
2022/12/13 11:37:55;;;;;;;35.75;15.60;;;;;;;;;;5020137;28;20055;-78
2022/12/13 11:40:25;;;;;;;31.13;15.52;;;;;;;;;;5045859;28;20050;-78
2022/12/13 11:42:58;;;;;;;38.35;15.77;;;;;;;;;;5052455;28;20875;-78
2022/12/13 11:45:26;;;;;;;32.40;15.23;;;;;;;;;;5056485;28;20046;-77
2022/12/13 11:47:59;;;;;;;34.05;15.82;;;;;;;;;;5048704;28;20049;-79
2022/12/13 11:50:40;;;;;;;35.88;14.43;;;;;;;;;;5051062;28;20057;-78
2022/12/13 11:53:14;;;;;;;34.22;14.98;;;;;;;;;;5036379;28;20041;-77
2022/12/13 11:55:47;;;;;;;33.38;15.52;;;;;;;;;;5051407;28;20069;-78
2022/12/13 11:58:19;;;;;;;33.80;16.08;;;;;;;;;;5052186;28;20496;-78
2022/12/13 12:01:12;;;;;;;27.48;13.88;;;;;;;;;;5049303;28;20771;-78
2022/12/13 12:03:59;;;;;;;30.52;15.55;;;;;;;;;;5037309;28;20060;-79
2022/12/13 12:06:34;;;;;;;32.83;15.18;;;;;;;;;;5053208;28;20049;-78
2022/12/13 12:09:04;;;;;;;28.77;15.35;;;;;;;;;;5054852;28;20053;-78
2022/12/13 12:11:39;;;;;;;32.10;15.40;;;;;;;;;;5054390;28;20049;-78
2022/12/13 12:14:12;;;;;;;33.25;15.13;;;;;;;;;;5050451;28;20137;-78
2022/12/13 12:16:50;;;;;;;35.55;14.88;;;;;;;;;;5057364;28;20049;-78
2022/12/13 12:19:20;;;;;;;32.03;16.10;;;;;;;;;;5049759;28;20091;-78
2022/12/13 12:22:08;;;;;;;29.80;15.23;;;;;;;;;;5053714;28;20085;-78
2022/12/13 12:24:50;;;;;;;33.33;15.98;;;;;;;;;;5050113;28;20065;-78
2022/12/13 12:27:27;;;;;;;32.22;15.75;;;;;;;;;;5056414;28;20057;-78
2022/12/13 12:30:10;;;;;;;33.33;15.35;;;;;;;;;;5046028;28;20053;-78
2022/12/13 12:32:47;;;;;;;33.83;14.75;;;;;;;;;;5051412;28;20121;-78
2022/12/13 12:35:29;;;;;;;34.00;16.67;;;;;;;;;;5044999;28;20061;-78
2022/12/13 12:38:04;;;;;;;35.25;16.98;;;;;;;;;;5046874;28;20045;-78
2022/12/13 12:40:52;;;;;;;34.08;16.80;;;;;;;;;;5048616;28;20045;-78
2022/12/13 12:43:40;;;;;;;30.98;15.45;;;;;;;;;;4997249;28;20065;-78
2022/12/13 12:46:18;;;;;;;36.67;16.25;;;;;;;;;;5002409;28;20134;-78
2022/12/13 12:49:01;;;;;;;36.53;18.38;;;;;;;;;;5001954;28;20058;-78
2022/12/13 12:51:29;;;;;;;38.58;17.27;;;;;;;;;;4980532;28;20061;-78
2022/12/13 12:54:09;;;;;;;32.22;16.58;;;;;;;;;;4987832;28;20046;-78
2022/12/13 12:56:44;;;;;;;37.78;16.38;;;;;;;;;;5004168;28;20057;-78
2022/12/13 12:59:33;;;;;;;30.17;15.68;;;;;;;;;;5002672;28;20054;-78
2022/12/13 13:02:03;;;;;;;37.72;17.23;;;;;;;;;;5000894;28;20050;-78
2022/12/13 13:04:34;;;;;;;34.75;16.20;;;;;;;;;;4996490;28;20428;-78
2022/12/13 13:07:09;;;;;;;32.92;16.63;;;;;;;;;;4993355;28;20425;-78
2022/12/13 13:09:50;;;;;;;32.63;15.65;;;;;;;;;;5002950;28;20054;-78
2022/12/13 13:12:22;;;;;;;37.33;16.40;;;;;;;;;;5002141;28;20054;-78
2022/12/13 13:14:56;;;;;;;35.42;16.27;;;;;;;;;;4996477;28;20056;-78
2022/12/13 13:17:23;;;;;;;32.47;15.23;;;;;;;;;;5000793;28;20137;-78
2022/12/13 13:19:54;;;;;;;37.15;15.95;;;;;;;;;;5012604;28;20056;-78
2022/12/13 13:22:36;;;;;;;27.33;14.82;;;;;;;;;;5043926;28;20068;-78
2022/12/13 13:25:20;;;;;;;31.92;15.73;;;;;;;;;;5047637;28;20061;-78
2022/12/13 13:27:51;;;;;;;30.88;14.85;;;;;;;;;;5039427;28;20084;-78
2022/12/13 13:30:23;;;;;;;33.97;15.23;;;;;;;;;;5047830;28;20053;-78
2022/12/13 13:32:52;;;;;;;31.90;14.52;;;;;;;;;;5045535;28;20056;-78
2022/12/13 13:35:34;;;;;;;29.27;15.38;;;;;;;;;;5030172;28;23220;-78
2022/12/13 13:38:02;;;;;;;31.08;15.05;;;;;;;;;;5045318;28;20053;-77
2022/12/13 13:40:33;;;;;;;37.45;15.85;;;;;;;;;;5050748;28;20045;-77
2022/12/13 13:43:10;;;;;;;29.63;13.48;;;;;;;;;;5049708;28;20083;-77
2022/12/13 13:45:49;;;;;;;31.75;14.30;;;;;;;;;;5051294;28;21088;-77
2022/12/13 13:48:17;;;;;;;36.20;15.40;;;;;;;;;;5046026;28;20050;-77
2022/12/13 13:50:44;;;;;;;41.53;15.90;;;;;;;;;;5056622;28;20056;-77
2022/12/13 13:53:23;;;;;;;27.98;15.25;;;;;;;;;;5043495;28;20104;-77
2022/12/13 13:56:10;;;;;;;41.03;17.17;;;;;;;;;;5053321;28;20049;-77
2022/12/13 13:58:49;;;;;;;35.25;18.30;;;;;;;;;;5049388;28;20053;-78
2022/12/13 14:01:31;;;;;;;93.97;45.65;;;;;;;;;;5053435;28;20518;-78
2022/12/13 14:04:17;;;;;;;62.78;30.33;;;;;;;;;;5052572;28;20041;-77
2022/12/13 14:07:03;;;;;;;41.40;20.33;;;;;;;;;;5045665;28;20045;-79
2022/12/13 14:09:39;;;;;;;33.63;16.13;;;;;;;;;;5043851;28;20045;-77
2022/12/13 14:12:07;;;;;;;33.20;16.38;;;;;;;;;;5047603;28;20054;-77
2022/12/13 14:14:53;;;;;;;34.92;17.05;;;;;;;;;;5051304;28;20107;-78
2022/12/13 14:17:45;;;;;;;36.72;16.30;;;;;;;;;;5034681;28;20053;-78
2022/12/13 14:20:21;;;;;;;34.00;15.63;;;;;;;;;;5048010;28;20053;-78
2022/12/13 14:22:52;;;;;;;30.88;15.68;;;;;;;;;;5048809;28;20053;-78
2022/12/13 14:25:41;;;;;;;35.65;16.25;;;;;;;;;;5044690;28;20049;-77
2022/12/13 14:28:35;;;;;;;34.35;16.85;;;;;;;;;;5029049;28;20496;-77
2022/12/13 14:31:03;;;;;;;38.75;16.48;;;;;;;;;;5045757;28;20049;-77
2022/12/13 14:33:30;;;;;;;32.92;16.58;;;;;;;;;;5048936;28;20060;-77
2022/12/13 14:35:59;;;;;;;32.53;16.60;;;;;;;;;;5028528;28;20061;-77
2022/12/13 14:38:28;;;;;;;37.70;16.10;;;;;;;;;;5043039;28;20057;-77
2022/12/13 14:40:57;;;;;;;33.83;16.10;;;;;;;;;;5046593;28;20140;-78
2022/12/13 14:43:25;;;;;;;29.17;15.48;;;;;;;;;;5044166;28;20518;-77
2022/12/13 14:45:58;;;;;;;31.58;16.42;;;;;;;;;;5045206;28;20080;-77
2022/12/13 14:48:26;;;;;;;33.53;15.50;;;;;;;;;;5049453;28;20049;-77
2022/12/13 14:50:56;;;;;;;38.83;16.60;;;;;;;;;;5049143;28;20056;-77
2022/12/13 14:53:40;;;;;;;36.30;15.40;;;;;;;;;;5049383;28;20152;-77
2022/12/13 14:56:09;;;;;;;33.72;16.95;;;;;;;;;;5039187;28;20045;-77
2022/12/13 14:59:01;;;;;;;38.83;17.10;;;;;;;;;;5044890;28;20166;-77